createdAt,value
2022-08-09T00:02:31.613Z,15.15
2022-08-09T00:07:44.931Z,15.14
2022-08-09T00:12:52.660Z,15.15
2022-08-09T00:18:05.908Z,15.15
2022-08-09T00:23:57.681Z,15.12
2022-08-09T00:28:38.456Z,15.08
2022-08-09T00:33:50.592Z,15.02
2022-08-09T00:38:54.796Z,14.98
2022-08-09T00:44:16.063Z,14.95
2022-08-09T00:49:21.494Z,14.91
2022-08-09T00:54:35.326Z,14.89
2022-08-09T00:59:46.568Z,14.85
2022-08-09T01:05:13.930Z,14.82
2022-08-09T01:10:37.502Z,14.82
2022-08-09T01:15:52.242Z,14.86
2022-08-09T01:21:41.312Z,14.89
2022-08-09T01:27:03.210Z,14.88
2022-08-09T01:32:30.802Z,15.18
2022-08-09T01:38:05.738Z,15.59
2022-08-09T01:42:59.018Z,15.87
2022-08-09T01:48:05.892Z,15.89
2022-08-09T01:53:19.913Z,15.87
2022-08-09T01:58:26.359Z,15.71
2022-08-09T02:03:35.871Z,15.52
2022-08-09T02:08:58.870Z,15.37
2022-08-09T02:14:07.863Z,15.21
2022-08-09T02:19:13.188Z,15.09
2022-08-09T02:24:26.373Z,15.00
2022-08-09T02:29:36.644Z,14.93
2022-08-09T02:34:52.031Z,14.88
2022-08-09T02:40:15.284Z,14.89
2022-08-09T02:45:33.230Z,14.93
2022-08-09T02:50:51.849Z,14.95
2022-08-09T02:56:01.233Z,14.96
2022-08-09T03:01:08.144Z,14.94
2022-08-09T03:06:16.262Z,14.93
2022-08-09T03:11:30.122Z,14.91
2022-08-09T03:16:48.599Z,14.89
2022-08-09T03:21:52.623Z,14.90
2022-08-09T03:26:57.161Z,14.91
2022-08-09T03:32:01.087Z,14.92
2022-08-09T03:37:53.271Z,14.93
2022-08-09T03:42:30.850Z,14.94
2022-08-09T03:47:39.973Z,14.96
2022-08-09T03:52:45.927Z,14.98
2022-08-09T03:58:03.278Z,14.98
2022-08-09T04:03:24.955Z,14.99
2022-08-09T04:08:37.990Z,15.00
2022-08-09T04:14:37.724Z,15.02
2022-08-09T04:19:04.989Z,15.07
2022-08-09T04:24:14.341Z,15.19
2022-08-09T04:29:17.856Z,15.35
2022-08-09T04:34:30.578Z,15.50
2022-08-09T04:39:40.501Z,15.67
2022-08-09T04:44:49.372Z,15.81
2022-08-09T04:49:55.625Z,15.96
2022-08-09T04:55:01.566Z,16.18
2022-08-09T05:00:08.211Z,16.44
2022-08-09T05:05:12.263Z,16.79
2022-08-09T05:10:22.435Z,17.06
2022-08-09T05:15:38.995Z,17.23
2022-08-09T05:20:51.276Z,17.38
2022-08-09T05:25:54.687Z,17.44
2022-08-09T05:31:00.359Z,17.34
2022-08-09T05:36:14.919Z,17.20
2022-08-09T05:41:19.469Z,17.11
2022-08-09T05:46:23.190Z,17.03
2022-08-09T05:51:42.796Z,16.99
2022-08-09T05:56:54.972Z,16.99
2022-08-09T06:01:59.338Z,17.03
2022-08-09T06:07:06.230Z,17.10
2022-08-09T06:12:13.446Z,17.21
2022-08-09T06:17:16.846Z,17.21
2022-08-09T06:22:24.699Z,17.21
2022-08-09T06:27:42.400Z,17.20
2022-08-09T06:32:59.822Z,17.25
2022-08-09T06:38:10.284Z,17.36
2022-08-09T06:43:14.773Z,17.53
2022-08-09T06:48:30.142Z,17.74
2022-08-09T06:53:38.557Z,17.90
2022-08-09T07:00:51.493Z,17.99
2022-08-09T07:04:05.594Z,18.00
2022-08-09T07:09:53.661Z,18.02
2022-08-09T07:14:40.890Z,18.09
2022-08-09T07:19:47.995Z,18.08
2022-08-09T07:24:55.874Z,18.10
2022-08-09T07:30:01.399Z,18.17
2022-08-09T07:35:11.597Z,18.32
2022-08-09T07:40:20.498Z,18.49
2022-08-09T07:45:39.556Z,18.62
2022-08-09T07:50:53.140Z,18.79
2022-08-09T07:56:26.790Z,19.04
2022-08-09T08:01:34.324Z,19.27
2022-08-09T08:06:55.589Z,19.56
2022-08-09T08:12:09.918Z,19.76
2022-08-09T08:17:53.972Z,20.07
2022-08-09T08:22:51.485Z,20.48
2022-08-09T08:28:00.537Z,20.84
2022-08-09T08:33:05.790Z,21.41
2022-08-09T08:38:18.221Z,22.19
2022-08-09T08:43:24.117Z,23.99
2022-08-09T08:48:32.210Z,26.56
2022-08-09T08:53:38.764Z,27.91
2022-08-09T08:59:19.778Z,29.05
2022-08-09T09:04:33.161Z,29.91
2022-08-09T09:10:01.877Z,30.69
2022-08-09T09:15:08.549Z,31.22
2022-08-09T09:20:21.164Z,30.81
2022-08-09T09:26:03.355Z,29.54
2022-08-09T09:31:06.386Z,28.51
2022-08-09T09:36:21.308Z,27.53
2022-08-09T09:41:32.912Z,27.26
2022-08-09T09:46:50.735Z,27.16
2022-08-09T09:52:36.005Z,27.69
2022-08-09T09:58:00.895Z,28.03
2022-08-09T10:02:56.208Z,28.37
2022-08-09T10:08:26.143Z,28.37
2022-08-09T10:13:44.989Z,28.21
2022-08-09T10:18:54.411Z,28.19
2022-08-09T10:24:03.863Z,27.91
2022-08-09T10:29:31.359Z,27.40
2022-08-09T10:34:32.938Z,26.80
2022-08-09T10:39:49.337Z,25.99
2022-08-09T10:45:15.916Z,25.43
2022-08-09T10:51:10.094Z,25.13
2022-08-09T10:56:23.021Z,24.94
2022-08-09T11:03:14.733Z,24.83
2022-08-09T11:06:59.967Z,25.16
2022-08-09T11:12:17.381Z,25.52
2022-08-09T11:17:20.819Z,25.93
2022-08-09T11:22:45.121Z,25.67
2022-08-09T11:28:07.910Z,26.08
2022-08-09T11:33:20.824Z,26.22
2022-08-09T11:38:33.263Z,26.30
2022-08-09T11:43:40.457Z,26.12
2022-08-09T11:48:49.433Z,26.16
2022-08-09T11:54:27.472Z,25.91
2022-08-09T11:59:33.655Z,25.44
2022-08-09T12:04:38.171Z,25.34
2022-08-09T12:09:50.918Z,25.52
2022-08-09T12:15:07.352Z,25.85
2022-08-09T12:20:23.738Z,25.80
2022-08-09T12:25:37.686Z,25.80
2022-08-09T12:30:42.616Z,25.49
2022-08-09T12:35:47.824Z,25.05
2022-08-09T12:40:54.557Z,24.84
2022-08-09T12:46:00.627Z,24.47
2022-08-09T12:51:05.283Z,24.03
2022-08-09T12:56:43.024Z,23.55
2022-08-09T13:01:38.284Z,23.15
2022-08-09T13:06:50.741Z,22.93
2022-08-09T13:12:02.959Z,22.81
2022-08-09T13:17:16.090Z,22.67
2022-08-09T13:22:36.783Z,22.69
2022-08-09T13:27:55.600Z,22.80
2022-08-09T13:33:00.031Z,22.82
2022-08-09T13:38:04.261Z,22.84
2022-08-09T13:43:21.033Z,22.94
2022-08-09T13:48:39.587Z,23.10
2022-08-09T13:53:46.140Z,23.26
2022-08-09T13:58:49.457Z,23.41
2022-08-09T14:04:04.926Z,23.52
2022-08-09T14:09:15.019Z,23.62
2022-08-09T14:14:25.792Z,23.74
2022-08-09T14:19:33.501Z,23.97
2022-08-09T14:24:37.035Z,24.20
2022-08-09T14:30:35.378Z,24.19
2022-08-09T14:35:14.077Z,24.01
2022-08-09T14:40:18.918Z,23.99
2022-08-09T14:46:57.369Z,24.06
2022-08-09T14:51:06.532Z,23.98
2022-08-09T14:56:13.273Z,23.84
2022-08-09T15:01:17.038Z,23.64
2022-08-09T15:06:23.287Z,23.53
2022-08-09T15:11:29.057Z,23.48
2022-08-09T15:16:33.204Z,23.52
2022-08-09T15:21:56.202Z,23.50
2022-08-09T15:26:59.981Z,23.37
2022-08-09T15:32:04.799Z,23.21
2022-08-09T15:37:37.765Z,23.02
2022-08-09T15:42:52.729Z,22.90
2022-08-09T15:48:05.018Z,22.78
2022-08-09T15:54:04.758Z,22.72
2022-08-09T15:58:43.111Z,22.67
2022-08-09T16:03:50.101Z,22.61
2022-08-09T16:08:56.505Z,22.57
2022-08-09T16:14:07.910Z,22.51
2022-08-09T16:19:13.408Z,22.43
2022-08-09T16:24:33.387Z,22.28
2022-08-09T16:29:50.638Z,22.12
2022-08-09T16:34:57.975Z,21.97
2022-08-09T16:40:05.361Z,21.91
2022-08-09T16:45:11.517Z,21.88
2022-08-09T16:50:31.405Z,21.80
2022-08-09T16:55:59.883Z,21.67
2022-08-09T17:01:02.317Z,21.50
2022-08-09T17:06:29.043Z,21.33
2022-08-09T17:11:40.450Z,21.26
2022-08-09T17:16:45.403Z,21.20
2022-08-09T17:21:48.779Z,21.13
2022-08-09T17:26:59.056Z,21.03
2022-08-09T17:32:02.578Z,20.94
2022-08-09T17:37:06.910Z,20.83
2022-08-09T17:42:42.356Z,20.68
2022-08-09T17:47:49.555Z,20.51
2022-08-09T17:52:58.211Z,20.35
2022-08-09T17:58:05.652Z,20.15
2022-08-09T18:03:13.199Z,20.00
2022-08-09T18:08:17.159Z,19.82
2022-08-09T18:13:43.388Z,19.63
2022-08-09T18:18:49.152Z,19.40
2022-08-09T18:24:12.385Z,19.14
2022-08-09T18:30:39.960Z,18.92
2022-08-09T18:34:43.849Z,18.71
2022-08-09T18:39:48.489Z,18.52
2022-08-09T18:44:52.222Z,18.34
2022-08-09T18:50:02.926Z,18.14
2022-08-09T18:55:13.571Z,17.95
2022-08-09T19:00:20.565Z,17.76
2022-08-09T19:06:01.929Z,17.57
2022-08-09T19:10:56.601Z,17.39
2022-08-09T19:16:00.409Z,17.21
2022-08-09T19:21:09.200Z,17.05
2022-08-09T19:26:17.163Z,16.87
2022-08-09T19:31:23.667Z,16.68
2022-08-09T19:36:30.945Z,16.48
2022-08-09T19:41:36.847Z,16.27
2022-08-09T19:46:50.775Z,16.05
2022-08-09T19:51:57.582Z,15.85
2022-08-09T19:57:01.461Z,15.67
2022-08-09T20:04:12.207Z,15.50
2022-08-09T20:07:56.962Z,15.35
2022-08-09T20:12:54.747Z,15.20
2022-08-09T20:18:02.582Z,15.08
2022-08-09T20:23:07.640Z,14.97
2022-08-09T20:28:13.409Z,14.89
2022-08-09T20:33:38.878Z,14.80
2022-08-09T20:39:18.732Z,14.75
2022-08-09T20:44:09.944Z,14.72
2022-08-09T20:49:16.041Z,14.65
2022-08-09T20:54:20.216Z,14.53
2022-08-09T21:00:19.237Z,14.38
2022-08-09T21:05:57.009Z,14.24
2022-08-09T21:10:13.487Z,14.11
2022-08-09T21:15:23.848Z,14.01
2022-08-09T21:20:38.564Z,13.94
2022-08-09T21:25:56.275Z,13.85
2022-08-09T21:31:13.723Z,13.73
2022-08-09T21:36:28.061Z,13.62
2022-08-09T21:42:04.667Z,13.55
2022-08-09T21:46:57.744Z,13.45
2022-08-09T21:52:01.156Z,13.35
2022-08-09T21:57:04.669Z,13.25
2022-08-09T22:02:09.557Z,13.15
2022-08-09T22:07:39.923Z,13.08
2022-08-09T22:12:49.829Z,12.99
2022-08-09T22:17:53.546Z,12.90
2022-08-09T22:22:56.872Z,12.83
2022-08-09T22:27:59.961Z,12.77
2022-08-09T22:33:03.478Z,12.70
2022-08-09T22:38:14.736Z,12.63
2022-08-09T22:44:00.404Z,12.60
2022-08-09T22:48:50.347Z,12.59
2022-08-09T22:54:02.691Z,12.62
2022-08-09T22:59:54.893Z,12.68
2022-08-09T23:04:32.702Z,12.65
2022-08-09T23:09:36.899Z,12.60
2022-08-09T23:14:42.377Z,12.53
2022-08-09T23:20:00.711Z,12.45
2022-08-09T23:25:11.218Z,12.36
2022-08-09T23:30:14.621Z,12.26
2022-08-09T23:35:17.861Z,12.18
2022-08-09T23:40:21.030Z,12.11
2022-08-09T23:45:37.300Z,12.03
2022-08-09T23:50:41.925Z,11.95
2022-08-09T23:55:49.882Z,11.87
